Millbury, Ohio
Current Conditions -  °F | °C
As of 2:53 PM on Wednesday 28 Jan 2015 (Local Time) from KTDZ Reporting Station
Clear Clear  
Wind Chill: 16°   Ceiling: Unl
Heat Index: 25°   Visibility: 10mi
Dew Point: 13°   Wind: 9mph
Humidity: 60%   Direction: 180°S
Pressure: 30.31"   Gusts: NA
Location:  41.57°N, 83.42°W
Report Text: KTDZ 281953Z AUTO 18008KT 10SM CLR M04/M11 A3031 RMK AO2 SLP273 T10391106 TSNO
Loading
Personal Weather Stations






























Interactive Weather Map New forecast layout! Learn more

10-Day Weather Forecast

Advertisements
Track Severe Weather on mobile